Time;durP1;ratioP1;P1;durP2;ratioP2;P2;SDS_P1;SDS_P2;PMS_P1;PMS_P2;Temp;Humidity;BMP_temperature;BMP_pressure;BME280_temperature;BME280_humidity;BME280_pressure;Samples;Min_cycle;Max_cycle;Signal;HPM_P1;HPM_P2
2021/07/20 00:02:58;;;;;;;27.75;7.45;;;14.80;99.90;;;;;;12512213;28;20090;-83
2021/07/20 00:09:02;;;;;;;13.45;6.82;;;14.80;99.90;;;;;;12515931;28;20748;-83
2021/07/20 00:15:08;;;;;;;14.68;7.05;;;14.90;99.90;;;;;;12514111;28;20402;-83
2021/07/20 00:21:10;;;;;;;14.32;6.63;;;15.00;99.90;;;;;;12518311;28;20076;-84
2021/07/20 00:27:12;;;;;;;14.60;7.00;;;15.10;99.90;;;;;;12510319;28;20041;-84
2021/07/20 00:33:15;;;;;;;10.13;6.13;;;15.20;99.90;;;;;;12516935;28;20048;-83
2021/07/20 00:39:17;;;;;;;11.35;6.65;;;15.10;99.90;;;;;;12513559;28;20117;-83
2021/07/20 00:45:19;;;;;;;12.65;6.35;;;14.90;99.90;;;;;;12517362;28;20045;-83
2021/07/20 00:51:21;;;;;;;10.70;6.78;;;14.90;99.90;;;;;;12529249;28;20053;-83
2021/07/20 00:57:24;;;;;;;15.07;6.88;;;14.90;99.90;;;;;;12509070;28;20106;-83
2021/07/20 01:03:26;;;;;;;11.70;6.50;;;15.10;99.90;;;;;;12517243;28;20151;-84
2021/07/20 01:09:29;;;;;;;11.63;6.18;;;15.00;99.90;;;;;;12512563;28;20448;-83
2021/07/20 01:15:31;;;;;;;9.90;6.20;;;15.00;99.90;;;;;;12510647;28;20049;-84
2021/07/20 01:21:35;;;;;;;11.38;6.40;;;15.10;99.90;;;;;;12529822;28;20645;-84
2021/07/20 01:27:39;;;;;;;10.95;6.20;;;15.00;99.90;;;;;;12533577;28;20175;-83
2021/07/20 01:33:45;;;;;;;14.40;6.53;;;15.00;99.90;;;;;;12520803;28;20048;-83
2021/07/20 01:39:48;;;;;;;13.63;6.53;;;15.00;99.90;;;;;;12521417;28;20106;-84
2021/07/20 01:45:54;;;;;;;10.55;6.13;;;15.00;99.90;;;;;;12521222;28;20548;-83
2021/07/20 01:51:57;;;;;;;9.73;5.88;;;15.00;99.90;;;;;;12519174;28;20041;-83
2021/07/20 01:57:59;;;;;;;13.80;5.68;;;15.10;99.90;;;;;;12519612;28;20065;-83
2021/07/20 02:04:24;;;;;;;12.88;5.65;;;15.20;99.90;;;;;;12518848;28;20049;-83
2021/07/20 02:10:26;;;;;;;10.43;5.43;;;15.00;99.90;;;;;;12516891;28;20063;-83
2021/07/20 02:16:31;;;;;;;9.77;5.45;;;15.10;99.90;;;;;;12514636;28;20097;-83
2021/07/20 02:22:35;;;;;;;11.10;6.28;;;15.10;99.90;;;;;;12519407;28;20076;-83
2021/07/20 02:28:39;;;;;;;12.35;6.47;;;15.00;99.90;;;;;;12519479;28;20391;-83
2021/07/20 02:34:43;;;;;;;;;;;15.00;99.90;;;;;;12533438;28;20130;-83
2021/07/20 02:40:46;;;;;;;10.48;6.05;;;14.90;99.90;;;;;;12514217;28;19972;-83
2021/07/20 02:46:48;;;;;;;13.77;6.27;;;14.90;99.90;;;;;;12523699;28;20097;-84
2021/07/20 02:52:52;;;;;;;10.85;5.45;;;15.10;99.90;;;;;;12520633;28;20098;-84
2021/07/20 02:59:00;;;;;;;11.75;6.18;;;14.90;99.90;;;;;;12512543;28;20057;-84
2021/07/20 03:05:04;;;;;;;10.95;5.50;;;15.10;99.90;;;;;;12519915;28;20085;-84
2021/07/20 03:11:07;;;;;;;;;;;14.90;99.90;;;;;;12510884;28;20203;-84
2021/07/20 03:17:11;;;;;;;11.93;5.57;;;14.80;99.90;;;;;;12536063;28;19928;-85
2021/07/20 03:23:14;;;;;;;12.00;5.78;;;14.90;99.90;;;;;;12519884;28;20090;-85
2021/07/20 03:29:19;;;;;;;12.57;5.05;;;14.90;99.90;;;;;;12522919;28;20076;-84
2021/07/20 03:35:22;;;;;;;9.73;5.63;;;14.90;99.90;;;;;;12516793;28;20053;-84
2021/07/20 03:41:27;;;;;;;9.93;5.25;;;14.90;99.90;;;;;;12518500;28;20049;-84
2021/07/20 03:47:30;;;;;;;8.85;5.22;;;14.90;99.90;;;;;;12519744;28;20056;-84
2021/07/20 03:53:33;;;;;;;16.27;5.93;;;14.80;99.90;;;;;;12517793;28;20106;-84
2021/07/20 03:59:36;;;;;;;11.43;5.68;;;14.90;99.90;;;;;;12522953;28;20052;-84
2021/07/20 04:05:39;;;;;;;12.95;6.30;;;14.90;99.90;;;;;;12521761;28;20417;-84
2021/07/20 04:11:42;;;;;;;12.93;5.60;;;15.00;99.90;;;;;;12513322;28;20071;-84
2021/07/20 04:17:45;;;;;;;13.23;6.40;;;15.10;99.90;;;;;;12516385;28;20086;-85
2021/07/20 04:23:50;;;;;;;9.57;5.70;;;15.10;99.90;;;;;;12515290;28;20082;-84
2021/07/20 04:29:51;;;;;;;12.23;5.70;;;15.10;99.90;;;;;;12538760;28;20071;-85
2021/07/20 04:35:58;;;;;;;10.32;5.97;;;15.20;99.90;;;;;;12517250;28;20102;-84
2021/07/20 04:42:01;;;;;;;12.68;6.05;;;15.20;99.90;;;;;;12518164;28;20075;-84
2021/07/20 04:48:04;;;;;;;13.18;6.22;;;15.30;99.90;;;;;;12521227;28;20041;-84
2021/07/20 04:54:08;;;;;;;10.80;6.22;;;15.30;99.90;;;;;;12521983;28;20127;-85
2021/07/20 05:00:10;;;;;;;13.63;6.32;;;15.30;99.90;;;;;;12520577;28;20107;-84
2021/07/20 05:06:13;;;;;;;12.27;6.78;;;15.30;99.90;;;;;;12529679;28;20044;-84
2021/07/20 05:12:15;;;;;;;10.15;5.95;;;15.30;99.90;;;;;;12529266;28;20071;-85
2021/07/20 05:18:19;;;;;;;14.98;6.25;;;15.40;99.90;;;;;;12530522;28;20140;-84
2021/07/20 05:24:20;;;;;;;13.77;6.57;;;15.30;99.90;;;;;;12533290;28;20060;-85
2021/07/20 05:30:23;;;;;;;14.35;6.22;;;15.40;99.90;;;;;;12528494;28;20041;-85
2021/07/20 05:36:27;;;;;;;11.77;5.93;;;15.50;99.90;;;;;;12530833;28;20470;-84
2021/07/20 05:42:30;;;;;;;12.93;6.22;;;15.50;99.90;;;;;;12525847;28;20094;-84
2021/07/20 05:48:33;;;;;;;12.10;6.78;;;15.60;99.90;;;;;;12526681;28;20248;-84
2021/07/20 05:54:36;;;;;;;13.57;6.60;;;15.70;99.90;;;;;;12558504;28;20052;-85
2021/07/20 06:00:38;;;;;;;11.93;6.38;;;15.60;99.90;;;;;;12540893;28;20041;-84
2021/07/20 06:06:41;;;;;;;9.23;6.10;;;15.80;99.90;;;;;;12521153;28;20087;-84
2021/07/20 06:12:43;;;;;;;11.90;6.90;;;15.80;99.90;;;;;;12519877;28;20048;-84
2021/07/20 06:18:45;;;;;;;10.30;6.30;;;15.90;99.90;;;;;;12522079;28;20053;-84
2021/07/20 06:24:48;;;;;;;9.85;6.65;;;15.90;99.90;;;;;;12518220;28;20041;-84
2021/07/20 06:30:54;;;;;;;12.93;6.15;;;16.10;99.90;;;;;;12523144;28;20040;-84
2021/07/20 06:36:56;;;;;;;10.27;5.88;;;16.10;99.90;;;;;;12520027;28;20459;-84
2021/07/20 06:43:02;;;;;;;10.05;5.50;;;16.10;99.90;;;;;;12522522;28;20052;-85
2021/07/20 06:49:04;;;;;;;9.65;5.63;;;16.20;99.90;;;;;;12523850;28;20125;-84
2021/07/20 06:55:07;;;;;;;9.95;5.35;;;16.30;99.90;;;;;;12519885;28;20136;-85
2021/07/20 07:01:11;;;;;;;8.93;4.60;;;16.40;99.90;;;;;;12523924;28;20094;-84
2021/07/20 07:07:15;;;;;;;9.18;4.55;;;16.50;99.90;;;;;;12518917;28;20049;-85
2021/07/20 07:13:18;;;;;;;7.50;4.05;;;16.60;99.90;;;;;;12522096;28;20402;-86
2021/07/20 07:19:21;;;;;;;11.15;4.40;;;16.70;99.90;;;;;;12526572;28;20178;-84
2021/07/20 07:25:24;;;;;;;7.27;4.10;;;16.80;99.90;;;;;;12523497;28;20094;-84
2021/07/20 07:31:27;;;;;;;7.13;3.97;;;17.00;99.90;;;;;;12521521;28;20049;-85
2021/07/20 07:37:30;;;;;;;8.37;4.03;;;17.10;99.90;;;;;;12536783;28;20072;-85
2021/07/20 07:43:34;;;;;;;7.57;3.50;;;17.10;99.90;;;;;;12512537;28;20090;-84
2021/07/20 07:49:36;;;;;;;7.22;2.85;;;17.10;99.90;;;;;;12524868;28;20118;-85
2021/07/20 07:55:38;;;;;;;5.63;2.72;;;17.00;99.90;;;;;;12530066;28;20053;-84
2021/07/20 08:01:44;;;;;;;5.97;3.08;;;17.10;99.90;;;;;;12518699;28;20102;-85
2021/07/20 08:07:46;;;;;;;7.03;3.25;;;17.00;99.90;;;;;;12511580;28;20731;-85
2021/07/20 08:13:48;;;;;;;5.82;3.10;;;17.30;99.90;;;;;;12515092;28;20052;-85
2021/07/20 08:19:52;;;;;;;5.57;3.55;;;17.30;99.90;;;;;;12511773;28;20233;-85
2021/07/20 08:25:59;;;;;;;6.13;3.22;;;17.20;99.90;;;;;;12516586;28;20048;-85
2021/07/20 08:32:08;;;;;;;6.53;3.15;;;17.30;99.90;;;;;;12524382;28;20052;-85
2021/07/20 08:38:13;;;;;;;5.13;2.60;;;17.40;99.90;;;;;;12513563;28;20323;-85
2021/07/20 08:44:53;;;;;;;4.38;2.22;;;17.60;99.90;;;;;;12530197;28;20067;-85
2021/07/20 08:51:09;;;;;;;6.68;3.10;;;17.60;99.90;;;;;;12515956;28;20044;-85
2021/07/20 08:57:17;;;;;;;8.63;3.58;;;17.40;99.90;;;;;;12524122;28;20520;-85
2021/07/20 09:03:24;;;;;;;5.95;3.35;;;17.40;99.90;;;;;;12534670;28;20045;-86
2021/07/20 09:09:33;;;;;;;8.05;3.38;;;17.20;99.90;;;;;;12507294;28;20057;-85
2021/07/20 09:15:42;;;;;;;5.28;2.65;;;17.20;99.90;;;;;;12522761;28;20041;-85
2021/07/20 09:21:50;;;;;;;5.10;2.90;;;17.20;99.90;;;;;;12513359;28;20072;-86
2021/07/20 09:28:06;;;;;;;3.55;2.35;;;17.30;99.90;;;;;;12516884;28;20049;-85
2021/07/20 09:34:49;;;;;;;6.30;3.40;;;17.30;99.90;;;;;;12521386;28;20584;-85
2021/07/20 09:41:18;;;;;;;4.22;2.70;;;17.30;99.90;;;;;;12519564;28;20048;-85
2021/07/20 09:47:26;;;;;;;8.38;2.90;;;17.50;99.90;;;;;;12534577;28;20106;-85
2021/07/20 09:53:49;;;;;;;5.60;2.70;;;17.40;99.90;;;;;;12529271;28;20049;-85
2021/07/20 10:00:15;;;;;;;5.15;2.90;;;17.30;99.90;;;;;;12516248;28;20045;-85
2021/07/20 10:06:38;;;;;;;5.07;3.10;;;17.60;99.90;;;;;;12524728;28;20044;-85
2021/07/20 10:12:48;;;;;;;5.10;2.95;;;17.70;99.90;;;;;;12527957;28;20052;-85
2021/07/20 10:19:01;;;;;;;4.95;2.97;;;17.90;99.90;;;;;;12564133;28;20079;-85
2021/07/20 10:25:12;;;;;;;4.82;2.97;;;17.80;99.90;;;;;;12523515;28;20133;-85
2021/07/20 10:31:29;;;;;;;7.47;3.17;;;17.80;99.90;;;;;;12508376;28;20041;-85
2021/07/20 10:37:38;;;;;;;6.15;3.13;;;17.60;99.90;;;;;;12509307;28;20540;-85
2021/07/20 10:43:45;;;;;;;4.43;3.08;;;17.70;99.90;;;;;;12537743;28;20448;-85
2021/07/20 10:49:53;;;;;;;7.35;3.45;;;17.50;99.90;;;;;;12519641;28;20053;-85
2021/07/20 10:56:36;;;;;;;7.05;3.58;;;17.70;99.90;;;;;;12518348;28;20075;-85
2021/07/20 11:02:58;;;;;;;7.05;3.58;;;17.70;99.90;;;;;;12512321;28;20041;-84
2021/07/20 11:09:05;;;;;;;7.18;3.63;;;17.90;99.90;;;;;;12519132;28;20057;-85
2021/07/20 11:15:07;;;;;;;7.68;3.53;;;17.90;99.90;;;;;;12521014;28;20368;-86
2021/07/20 11:21:13;;;;;;;9.50;3.83;;;18.00;99.90;;;;;;12518461;28;20175;-85
2021/07/20 11:27:19;;;;;;;6.57;3.47;;;18.10;99.90;;;;;;12518444;28;20083;-85
2021/07/20 11:33:37;;;;;;;7.25;3.67;;;18.10;99.90;;;;;;12506655;28;20044;-85
2021/07/20 11:40:00;;;;;;;7.00;4.00;;;18.10;99.90;;;;;;12517563;28;20487;-85
2021/07/20 11:46:12;;;;;;;6.00;3.90;;;17.90;99.90;;;;;;12534282;28;20052;-85
2021/07/20 11:52:28;;;;;;;8.98;4.18;;;17.90;99.90;;;;;;12515072;28;20053;-85
2021/07/20 11:58:42;;;;;;;6.60;3.85;;;17.90;99.90;;;;;;12516381;28;20471;-85
2021/07/20 12:05:20;;;;;;;9.05;3.58;;;18.20;99.90;;;;;;12518741;28;20049;-85
2021/07/20 12:11:25;;;;;;;6.22;3.95;;;18.30;99.90;;;;;;12512338;28;20451;-85
2021/07/20 12:17:33;;;;;;;6.72;3.88;;;18.20;99.90;;;;;;12511235;28;20105;-85
2021/07/20 12:23:40;;;;;;;5.85;3.70;;;18.50;99.90;;;;;;12506024;28;20041;-85
2021/07/20 12:29:42;;;;;;;5.60;3.25;;;19.30;99.90;;;;;;12514214;28;20098;-86
2021/07/20 12:35:49;;;;;;;7.33;3.53;;;20.50;99.90;;;;;;12516147;28;20478;-86
2021/07/20 12:41:55;;;;;;;4.75;3.30;;;20.70;99.90;;;;;;12511121;28;20071;-86
2021/07/20 12:48:34;;;;;;;6.78;3.42;;;21.00;99.90;;;;;;12514850;28;20136;-85
2021/07/20 12:54:37;;;;;;;6.47;3.00;;;20.80;99.90;;;;;;12511776;28;20083;-85
2021/07/20 13:00:40;;;;;;;5.40;3.20;;;20.30;99.90;;;;;;12508263;28;20102;-86
2021/07/20 13:06:44;;;;;;;8.93;3.13;;;20.30;99.90;;;;;;12508968;28;20102;-86
2021/07/20 13:12:54;;;;;;;6.30;3.38;;;20.40;99.90;;;;;;12514235;28;20424;-85
2021/07/20 13:18:56;;;;;;;5.07;3.17;;;20.80;99.90;;;;;;12513752;28;20056;-86
2021/07/20 13:24:58;;;;;;;5.18;3.20;;;21.40;99.90;;;;;;12514132;28;20110;-86
2021/07/20 13:31:05;;;;;;;7.43;3.40;;;21.10;99.90;;;;;;12522729;28;20045;-86
2021/07/20 13:37:08;;;;;;;7.75;3.15;;;21.00;99.90;;;;;;12523268;28;20103;-86
2021/07/20 13:43:11;;;;;;;5.13;3.30;;;20.70;99.90;;;;;;12523296;28;20059;-85
2021/07/20 13:49:16;;;;;;;5.22;3.28;;;21.00;99.90;;;;;;12519720;28;20090;-87
2021/07/20 13:55:23;;;;;;;5.13;3.63;;;21.20;99.90;;;;;;12519473;28;20057;-85
2021/07/20 14:01:25;;;;;;;5.38;3.47;;;20.70;99.90;;;;;;12522981;28;20045;-86
2021/07/20 14:07:29;;;;;;;5.30;3.22;;;20.20;99.90;;;;;;12519548;28;20083;-86
2021/07/20 14:13:32;;;;;;;;;;;20.10;99.90;;;;;;12571117;28;20049;-86
2021/07/20 14:19:34;;;;;;;5.13;3.22;;;20.10;99.90;;;;;;12528137;28;19935;-86
2021/07/20 14:25:49;;;;;;;5.28;3.65;;;20.10;99.90;;;;;;12522842;28;20119;-86
2021/07/20 14:31:51;;;;;;;6.63;3.78;;;20.40;99.90;;;;;;12516434;28;20052;-86
2021/07/20 14:37:53;;;;;;;6.88;3.70;;;21.10;99.90;;;;;;12516447;28;20060;-86
2021/07/20 14:44:01;;;;;;;7.80;3.63;;;21.20;99.90;;;;;;12517636;28;20056;-86
2021/07/20 14:50:27;;;;;;;5.85;3.50;;;20.80;99.90;;;;;;12534942;28;20106;-86
2021/07/20 14:56:29;;;;;;;8.13;3.88;;;21.20;99.90;;;;;;12518983;28;20049;-86
2021/07/20 15:02:38;;;;;;;8.02;4.13;;;21.00;99.90;;;;;;12516894;28;20052;-86
2021/07/20 15:08:47;;;;;;;6.40;3.78;;;20.80;99.90;;;;;;12516544;28;20048;-86
2021/07/20 15:14:54;;;;;;;7.18;4.07;;;20.40;99.90;;;;;;12519047;28;20114;-86
2021/07/20 15:20:56;;;;;;;7.47;4.50;;;20.30;99.90;;;;;;12514908;28;20391;-86
2021/07/20 15:27:05;;;;;;;6.47;3.65;;;20.90;99.90;;;;;;12515912;28;20060;-86
2021/07/20 15:33:07;;;;;;;7.53;3.97;;;21.50;99.90;;;;;;12512807;28;20037;-86
2021/07/20 15:39:10;;;;;;;6.05;3.83;;;22.00;99.90;;;;;;12514122;28;20573;-86
2021/07/20 15:45:18;;;;;;;8.30;4.10;;;22.00;99.90;;;;;;12530456;28;20080;-86
2021/07/20 15:51:23;;;;;;;6.70;4.63;;;21.80;99.90;;;;;;12526748;28;20037;-85
2021/07/20 15:57:27;;;;;;;8.30;4.50;;;21.20;99.90;;;;;;12510984;28;20097;-86
2021/07/20 16:03:29;;;;;;;7.57;4.38;;;21.40;99.90;;;;;;12510419;28;20071;-86
2021/07/20 16:09:31;;;;;;;6.23;4.33;;;21.40;99.90;;;;;;12512121;28;20539;-86
2021/07/20 16:15:40;;;;;;;5.88;4.38;;;21.60;99.90;;;;;;12506111;28;20090;-86
2021/07/20 16:21:42;;;;;;;7.45;4.00;;;20.60;99.90;;;;;;12506330;28;20136;-86
2021/07/20 16:27:46;;;;;;;6.55;4.15;;;20.60;99.90;;;;;;12506494;28;20733;-86
2021/07/20 16:33:48;;;;;;;7.15;4.50;;;21.30;99.90;;;;;;12500301;28;20045;-86
2021/07/20 16:39:50;;;;;;;6.17;4.00;;;21.60;99.90;;;;;;12504010;28;20270;-86
2021/07/20 16:45:58;;;;;;;7.07;4.20;;;21.00;99.90;;;;;;12507559;28;20041;-86
2021/07/20 16:52:01;;;;;;;9.82;5.00;;;21.00;99.90;;;;;;12498456;28;20045;-86
2021/07/20 16:58:23;;;;;;;8.85;4.20;;;21.20;99.90;;;;;;12507286;28;20064;-86
2021/07/20 17:04:26;;;;;;;6.67;4.20;;;21.10;99.90;;;;;;12518776;28;20044;-86
2021/07/20 17:10:28;;;;;;;8.48;4.05;;;21.00;99.90;;;;;;12520690;28;20052;-86
2021/07/20 17:16:33;;;;;;;9.38;3.88;;;21.00;99.90;;;;;;12520155;28;20710;-86
2021/07/20 17:22:36;;;;;;;6.43;4.40;;;20.70;99.90;;;;;;12518907;28;20056;-86
2021/07/20 17:28:43;;;;;;;6.20;4.15;;;20.60;99.90;;;;;;12520235;28;20051;-86
2021/07/20 17:34:45;;;;;;;8.32;4.65;;;20.40;99.90;;;;;;12522538;28;20366;-86
2021/07/20 17:40:47;;;;;;;10.18;4.82;;;20.30;99.90;;;;;;12499207;28;20041;-87
2021/07/20 17:46:49;;;;;;;8.15;5.10;;;20.20;99.90;;;;;;12553886;28;20056;-87
2021/07/20 17:52:52;;;;;;;9.05;4.40;;;20.60;99.90;;;;;;12527333;28;20041;-86
2021/07/20 17:58:54;;;;;;;7.77;4.20;;;21.10;99.90;;;;;;12514238;28;20052;-86
2021/07/20 18:04:56;;;;;;;9.93;4.90;;;20.90;99.90;;;;;;12506706;28;20648;-86
2021/07/20 18:10:59;;;;;;;10.80;4.95;;;20.60;99.90;;;;;;12521159;28;20106;-86
2021/07/20 18:17:01;;;;;;;9.27;5.50;;;20.30;99.90;;;;;;12519329;28;20111;-86
2021/07/20 18:23:03;;;;;;;8.23;4.88;;;20.10;99.90;;;;;;12518883;28;20106;-86
2021/07/20 18:29:05;;;;;;;7.63;4.93;;;19.90;99.90;;;;;;12515333;28;20888;-85
2021/07/20 18:35:07;;;;;;;8.65;5.00;;;19.80;99.90;;;;;;12514812;28;20057;-86
2021/07/20 18:41:09;;;;;;;8.10;4.38;;;19.80;99.90;;;;;;12518452;28;20123;-86
2021/07/20 18:47:11;;;;;;;13.35;5.32;;;19.80;99.90;;;;;;12518141;28;20144;-86
2021/07/20 18:53:13;;;;;;;10.65;4.97;;;19.70;99.90;;;;;;12515288;28;20056;-85
2021/07/20 18:59:16;;;;;;;9.43;5.60;;;19.70;99.90;;;;;;12516737;28;20053;-86
2021/07/20 19:05:20;;;;;;;11.10;5.57;;;19.60;99.90;;;;;;12513394;28;20045;-85
2021/07/20 19:11:22;;;;;;;10.82;6.00;;;19.50;99.90;;;;;;12518343;28;20044;-85
2021/07/20 19:17:23;;;;;;;12.43;6.13;;;19.40;99.90;;;;;;12518531;28;20137;-85
2021/07/20 19:23:26;;;;;;;12.02;6.70;;;19.20;99.90;;;;;;12519210;28;20349;-85
2021/07/20 19:29:27;;;;;;;11.65;6.65;;;19.20;99.90;;;;;;12517825;28;20049;-85
2021/07/20 19:35:30;;;;;;;8.93;6.10;;;19.10;99.90;;;;;;12515389;28;20106;-85
2021/07/20 19:41:32;;;;;;;12.10;6.10;;;19.00;99.90;;;;;;12512389;28;20049;-85
2021/07/20 19:47:34;;;;;;;9.68;6.53;;;19.00;99.90;;;;;;12517650;28;21048;-85
2021/07/20 19:53:37;;;;;;;11.50;6.25;;;18.90;99.90;;;;;;12508964;28;20928;-85
2021/07/20 19:59:38;;;;;;;10.73;6.68;;;18.80;99.90;;;;;;12509530;28;20048;-85
2021/07/20 20:05:41;;;;;;;11.32;6.63;;;18.70;99.90;;;;;;12516608;28;20041;-85
2021/07/20 20:11:43;;;;;;;10.95;6.35;;;18.70;99.90;;;;;;12510321;28;20107;-86
2021/07/20 20:17:45;;;;;;;11.48;6.63;;;18.80;99.90;;;;;;12511782;28;20048;-85
2021/07/20 20:23:47;;;;;;;11.82;6.65;;;18.70;99.90;;;;;;12517248;28;20544;-85
2021/07/20 20:29:49;;;;;;;10.35;6.07;;;18.60;99.90;;;;;;12505891;28;20104;-85
2021/07/20 20:35:51;;;;;;;10.52;5.90;;;18.60;99.90;;;;;;12514265;28;20064;-85
2021/07/20 20:41:53;;;;;;;10.00;5.55;;;18.50;99.90;;;;;;12510176;28;20095;-85
2021/07/20 20:47:55;;;;;;;9.32;5.70;;;18.50;99.90;;;;;;12536593;28;20049;-85
2021/07/20 20:53:57;;;;;;;9.60;5.13;;;18.40;99.90;;;;;;12509138;28;20749;-85
2021/07/20 20:59:59;;;;;;;6.70;4.90;;;18.40;99.90;;;;;;12511821;28;20053;-86
2021/07/20 21:06:01;;;;;;;6.88;4.70;;;18.30;99.90;;;;;;12518991;28;20041;-85
2021/07/20 21:12:03;;;;;;;6.80;4.72;;;18.20;99.90;;;;;;12518026;28;20106;-85
2021/07/20 21:18:05;;;;;;;11.38;5.10;;;18.10;99.90;;;;;;12511666;28;20076;-84
2021/07/20 21:24:07;;;;;;;7.35;4.53;;;18.10;99.90;;;;;;12518842;28;20622;-85
2021/07/20 21:30:09;;;;;;;7.80;4.75;;;18.20;99.90;;;;;;12513512;28;20044;-85
2021/07/20 21:36:11;;;;;;;7.60;4.70;;;18.10;99.90;;;;;;12540734;28;20057;-85
2021/07/20 21:42:17;;;;;;;7.68;4.80;;;18.00;99.90;;;;;;12543422;28;20124;-85
2021/07/20 21:48:19;;;;;;;7.03;4.53;;;18.00;99.90;;;;;;12524389;28;20086;-85
2021/07/20 21:54:20;;;;;;;7.28;5.40;;;18.00;99.90;;;;;;12521573;28;20094;-85
2021/07/20 22:00:26;;;;;;;7.32;4.88;;;18.00;99.90;;;;;;12523282;28;20045;-85
2021/07/20 22:06:28;;;;;;;8.35;4.75;;;17.90;99.90;;;;;;12527657;28;20044;-85
2021/07/20 22:12:30;;;;;;;6.70;4.18;;;17.90;99.90;;;;;;12520952;28;20102;-85
2021/07/20 22:18:32;;;;;;;6.13;4.20;;;17.90;99.90;;;;;;12523451;28;20045;-85
2021/07/20 22:24:34;;;;;;;6.60;4.50;;;17.90;99.90;;;;;;12523587;28;20472;-85
2021/07/20 22:30:42;;;;;;;6.47;4.38;;;17.80;99.90;;;;;;12513711;28;20149;-85
2021/07/20 22:36:45;;;;;;;7.13;4.53;;;17.80;99.90;;;;;;12520227;28;20550;-84
2021/07/20 22:42:47;;;;;;;7.40;5.07;;;17.80;99.90;;;;;;12521565;28;20102;-85
2021/07/20 22:48:49;;;;;;;6.97;4.50;;;17.80;99.90;;;;;;12520565;28;20122;-85
2021/07/20 22:54:51;;;;;;;6.95;4.90;;;17.80;99.90;;;;;;12520272;28;20052;-85
2021/07/20 23:00:59;;;;;;;7.95;5.03;;;17.80;99.90;;;;;;12521054;28;20048;-85
2021/07/20 23:07:06;;;;;;;8.85;4.80;;;17.70;99.90;;;;;;12514358;28;20056;-84
2021/07/20 23:13:08;;;;;;;6.72;5.18;;;17.60;99.90;;;;;;12522350;28;20106;-85
2021/07/20 23:19:10;;;;;;;7.53;5.15;;;17.50;99.90;;;;;;12538945;28;20094;-85
2021/07/20 23:25:15;;;;;;;7.53;4.80;;;17.50;99.90;;;;;;12520528;28;20436;-85
2021/07/20 23:31:17;;;;;;;7.60;4.93;;;17.50;99.90;;;;;;12512799;28;20101;-86
2021/07/20 23:37:18;;;;;;;8.98;5.05;;;17.50;99.90;;;;;;12519472;28;20052;-85
2021/07/20 23:43:25;;;;;;;6.97;4.70;;;17.60;99.90;;;;;;12516084;28;20386;-85
2021/07/20 23:49:27;;;;;;;7.18;5.00;;;17.60;99.90;;;;;;12532112;28;20110;-85
2021/07/20 23:55:29;;;;;;;6.85;4.97;;;17.60;99.90;;;;;;12518465;28;20040;-85
